createdAt,value
2023-03-22T00:02:26.387Z,101008.34
2023-03-22T00:04:54.091Z,101009.34
2023-03-22T00:07:23.311Z,101006.63
2023-03-22T00:09:50.092Z,100945.63
2023-03-22T00:12:18.986Z,100977.38
2023-03-22T00:14:45.722Z,100923.38
2023-03-22T00:17:12.864Z,100946.75
2023-03-22T00:19:45.034Z,100989.09
2023-03-22T00:22:11.964Z,100926.25
2023-03-22T00:24:38.881Z,100959.97
2023-03-22T00:27:08.021Z,100980.50
2023-03-22T00:29:37.166Z,100967.56
2023-03-22T00:32:06.321Z,100972.75
2023-03-22T00:34:33.347Z,100949.34
2023-03-22T00:37:00.101Z,100899.56
2023-03-22T00:39:27.155Z,100955.66
2023-03-22T00:41:53.803Z,100967.00
2023-03-22T00:44:20.445Z,100957.22
2023-03-22T00:46:47.039Z,100902.41
2023-03-22T00:49:13.864Z,100936.41
2023-03-22T00:51:40.561Z,100889.22
2023-03-22T00:54:07.317Z,100882.75
2023-03-22T00:56:37.716Z,100883.47
2023-03-22T00:59:06.849Z,100896.38
2023-03-22T01:01:33.668Z,100944.88
2023-03-22T01:04:00.571Z,100939.31
2023-03-22T01:06:29.558Z,100903.84
2023-03-22T01:08:57.497Z,100880.75
2023-03-22T01:11:25.030Z,100928.56
2023-03-22T01:13:51.603Z,100919.50
2023-03-22T01:16:20.636Z,100823.25
2023-03-22T01:18:47.370Z,100855.81
2023-03-22T01:21:16.893Z,100832.91
2023-03-22T01:23:44.067Z,100864.34
2023-03-22T01:26:11.304Z,100895.78
2023-03-22T01:28:40.781Z,100892.75
2023-03-22T01:31:10.108Z,100882.31
2023-03-22T01:33:39.109Z,100659.38
2023-03-22T01:36:06.260Z,100872.16
2023-03-22T01:38:32.983Z,100809.53
2023-03-22T01:41:01.899Z,100850.53
2023-03-22T01:43:28.734Z,100758.09
2023-03-22T01:45:56.527Z,100837.63
2023-03-22T01:48:42.240Z,100832.44
2023-03-22T01:51:13.985Z,100832.59
2023-03-22T01:53:49.973Z,100830.59
2023-03-22T01:56:21.697Z,100605.13
2023-03-22T01:58:52.601Z,100697.66
2023-03-22T02:01:22.920Z,100732.16
2023-03-22T02:03:52.903Z,100809.34
2023-03-22T02:06:20.443Z,100763.81
2023-03-22T02:08:48.197Z,100737.28
2023-03-22T02:11:18.011Z,100646.13
2023-03-22T02:14:03.910Z,100802.47
2023-03-22T02:16:48.128Z,100796.00
2023-03-22T02:19:52.029Z,100794.56
2023-03-22T02:22:28.466Z,100792.13
2023-03-22T02:25:17.736Z,100796.41
2023-03-22T02:28:12.334Z,100790.97
2023-03-22T02:31:00.211Z,100799.28
2023-03-22T02:33:45.312Z,100789.13
2023-03-22T02:36:36.532Z,100784.09
2023-03-22T02:39:41.187Z,100783.06
2023-03-22T02:42:27.213Z,100784.78
2023-03-22T02:45:15.267Z,100777.59
2023-03-22T02:47:49.354Z,100781.34
2023-03-22T02:50:35.614Z,100780.03
2023-03-22T02:53:14.652Z,100773.88
2023-03-22T02:55:51.456Z,100703.72
2023-03-22T02:58:23.662Z,100736.59
2023-03-22T03:00:57.502Z,100685.66
2023-03-22T03:03:29.421Z,100751.63
2023-03-22T03:06:02.794Z,100690.94
2023-03-22T03:08:33.727Z,100702.66
2023-03-22T03:11:02.734Z,100729.13
2023-03-22T03:13:29.503Z,100743.88
2023-03-22T03:15:59.508Z,100737.00
2023-03-22T03:18:26.373Z,100737.56
2023-03-22T03:21:05.813Z,100737.41
2023-03-22T03:24:04.905Z,100749.16
2023-03-22T03:26:49.107Z,100742.00
2023-03-22T03:29:27.671Z,100727.25
2023-03-22T03:32:06.748Z,100731.66
2023-03-22T03:34:51.358Z,100667.31
2023-03-22T03:37:27.438Z,100722.78
2023-03-22T03:40:41.454Z,100736.38
2023-03-22T03:43:09.876Z,100719.97
2023-03-22T03:45:38.045Z,100735.13
2023-03-22T03:48:10.102Z,100745.03
2023-03-22T03:50:36.974Z,100751.09
2023-03-22T03:53:06.231Z,100692.97
2023-03-22T03:55:33.782Z,100747.94
2023-03-22T03:58:02.730Z,100758.25
2023-03-22T04:00:29.532Z,100758.69
2023-03-22T04:02:56.242Z,100745.69
2023-03-22T04:05:27.791Z,100678.97
2023-03-22T04:07:54.458Z,100747.38
2023-03-22T04:10:21.519Z,100664.25
2023-03-22T04:12:48.388Z,100735.13
2023-03-22T04:15:15.439Z,100736.78
2023-03-22T04:17:42.253Z,100735.22
2023-03-22T04:20:11.136Z,100659.50
2023-03-22T04:22:38.822Z,100743.25
2023-03-22T04:25:11.980Z,100669.38
2023-03-22T04:27:42.758Z,100679.84
2023-03-22T04:30:24.839Z,100733.94
2023-03-22T04:32:51.809Z,100724.22
2023-03-22T04:35:18.835Z,100637.03
2023-03-22T04:37:48.904Z,100725.78
2023-03-22T04:40:21.085Z,100601.00
2023-03-22T04:42:47.696Z,100723.50
2023-03-22T04:45:14.381Z,100720.78
2023-03-22T04:47:41.233Z,100697.34
2023-03-22T04:50:08.785Z,100644.22
2023-03-22T04:52:37.907Z,100711.91
2023-03-22T04:55:04.964Z,100711.88
2023-03-22T04:57:32.009Z,100663.78
2023-03-22T04:59:59.540Z,100643.19
2023-03-22T05:02:26.360Z,100705.84
2023-03-22T05:04:53.055Z,100629.31
2023-03-22T05:07:19.783Z,100596.22
2023-03-22T05:09:46.516Z,100666.78
2023-03-22T05:12:13.702Z,100671.63
2023-03-22T05:14:40.466Z,100622.53
2023-03-22T05:17:07.684Z,100686.94
2023-03-22T05:19:34.471Z,100711.72
2023-03-22T05:22:02.204Z,100623.28
2023-03-22T05:24:34.344Z,100608.94
2023-03-22T05:27:01.226Z,100697.69
2023-03-22T05:29:28.636Z,100646.31
2023-03-22T05:31:57.673Z,100631.44
2023-03-22T05:34:36.606Z,100448.06
2023-03-22T05:37:04.005Z,100656.50
2023-03-22T05:39:30.987Z,100671.34
2023-03-22T05:41:57.891Z,100636.44
2023-03-22T05:44:25.270Z,100692.66
2023-03-22T05:46:52.190Z,100679.94
2023-03-22T05:49:24.073Z,100619.84
2023-03-22T05:51:50.745Z,100665.78
2023-03-22T05:54:17.868Z,100704.88
2023-03-22T05:56:45.358Z,100691.41
2023-03-22T05:59:12.162Z,100660.91
2023-03-22T06:01:40.266Z,100677.69
2023-03-22T06:04:07.034Z,100689.53
2023-03-22T06:06:33.711Z,100633.44
2023-03-22T06:09:10.706Z,100681.66
2023-03-22T06:11:43.042Z,100680.38
2023-03-22T06:14:12.255Z,100543.00
2023-03-22T06:16:38.913Z,100672.03
2023-03-22T06:19:05.818Z,100682.84
2023-03-22T06:21:40.840Z,100682.38
2023-03-22T06:24:09.920Z,100678.50
2023-03-22T06:26:36.589Z,100684.19
2023-03-22T06:29:03.717Z,100665.59
2023-03-22T06:31:31.599Z,100631.00
2023-03-22T06:33:58.343Z,100576.63
2023-03-22T06:36:25.263Z,100691.31
2023-03-22T06:38:52.227Z,100692.44
2023-03-22T06:41:19.105Z,100688.38
2023-03-22T06:43:47.126Z,100682.94
2023-03-22T06:46:16.068Z,100629.38
2023-03-22T06:48:42.766Z,100686.19
2023-03-22T06:51:09.869Z,100625.34
2023-03-22T06:53:36.750Z,100690.38
2023-03-22T06:56:03.591Z,100634.47
2023-03-22T06:58:32.565Z,100638.75
2023-03-22T07:00:59.354Z,100635.03
2023-03-22T07:03:26.445Z,100695.03
2023-03-22T07:05:53.164Z,100690.56
2023-03-22T07:08:19.789Z,100672.91
2023-03-22T07:10:51.109Z,100681.41
2023-03-22T07:13:20.261Z,100677.47
2023-03-22T07:15:46.930Z,100683.09
2023-03-22T07:18:13.676Z,100681.50
2023-03-22T07:20:41.988Z,100679.44
2023-03-22T07:23:10.813Z,100545.44
2023-03-22T07:25:37.933Z,100695.69
2023-03-22T07:28:04.616Z,100698.41
2023-03-22T07:30:31.279Z,100697.06
2023-03-22T07:33:00.579Z,100689.59
2023-03-22T07:35:27.442Z,100647.56
2023-03-22T07:37:54.199Z,100694.25
2023-03-22T07:40:20.797Z,100700.59
2023-03-22T07:42:51.569Z,100671.94
2023-03-22T07:45:19.508Z,100628.31
2023-03-22T07:47:46.705Z,100696.72
2023-03-22T07:50:17.701Z,100697.13
2023-03-22T07:52:45.641Z,100694.34
2023-03-22T07:55:14.233Z,100632.75
2023-03-22T07:57:41.174Z,100629.13
2023-03-22T08:00:12.658Z,100669.03
2023-03-22T08:02:39.872Z,100633.72
2023-03-22T08:05:09.751Z,100697.31
2023-03-22T08:07:37.662Z,100687.25
2023-03-22T08:10:05.315Z,100637.75
2023-03-22T08:12:32.663Z,100629.31
2023-03-22T08:14:59.482Z,100643.78
2023-03-22T08:17:26.365Z,100695.50
2023-03-22T08:19:55.954Z,100701.38
2023-03-22T08:22:25.306Z,100632.63
2023-03-22T08:24:54.921Z,100691.56
2023-03-22T08:27:21.829Z,100706.66
2023-03-22T08:29:51.268Z,100694.31
2023-03-22T08:32:17.912Z,100641.06
2023-03-22T08:34:44.678Z,100682.34
2023-03-22T08:37:13.098Z,100682.69
2023-03-22T08:39:40.377Z,100629.25
2023-03-22T08:42:07.090Z,100639.53
2023-03-22T08:44:33.706Z,100624.47
2023-03-22T08:47:03.199Z,100623.44
2023-03-22T08:49:35.809Z,100679.41
2023-03-22T08:52:02.633Z,100670.72
2023-03-22T08:54:33.560Z,100589.22
2023-03-22T08:57:01.033Z,100621.03
2023-03-22T08:59:30.290Z,100618.28
2023-03-22T09:01:57.151Z,100552.59
2023-03-22T09:04:24.060Z,100625.66
2023-03-22T09:06:51.041Z,100676.47
2023-03-22T09:09:18.362Z,100672.00
2023-03-22T09:11:47.560Z,100663.13
2023-03-22T09:14:14.262Z,100679.41
2023-03-22T09:16:41.336Z,100671.00
2023-03-22T09:19:08.985Z,100666.72
2023-03-22T09:21:35.883Z,100614.50
2023-03-22T09:24:02.773Z,100609.56
2023-03-22T09:26:29.766Z,100660.06
2023-03-22T09:28:56.435Z,100614.88
2023-03-22T09:31:23.036Z,100663.03
2023-03-22T09:33:49.717Z,100616.09
2023-03-22T09:36:16.754Z,100615.06
2023-03-22T09:38:43.996Z,100623.13
2023-03-22T09:41:32.608Z,100611.81
2023-03-22T09:44:09.279Z,100669.34
2023-03-22T09:46:39.079Z,100666.59
2023-03-22T09:49:16.330Z,100591.28
2023-03-22T09:51:52.482Z,100649.81
2023-03-22T09:54:24.571Z,100669.66
2023-03-22T09:56:58.761Z,100624.09
2023-03-22T09:59:51.223Z,100612.84
2023-03-22T10:02:42.831Z,100668.31
2023-03-22T10:05:21.113Z,100665.91
2023-03-22T10:08:02.620Z,100670.34
2023-03-22T10:10:29.950Z,100672.91
2023-03-22T10:13:20.038Z,100676.16
2023-03-22T10:15:55.582Z,100682.28
2023-03-22T10:18:26.665Z,100612.47
2023-03-22T10:21:03.213Z,100599.28
2023-03-22T10:23:44.809Z,100661.75
2023-03-22T10:26:29.967Z,100686.06
2023-03-22T10:29:04.913Z,100686.41
2023-03-22T10:31:37.073Z,100642.19
2023-03-22T10:34:31.115Z,100673.03
2023-03-22T10:37:01.218Z,100611.03
2023-03-22T10:39:33.278Z,100683.81
2023-03-22T10:42:04.433Z,100689.28
2023-03-22T10:44:43.983Z,100684.13
2023-03-22T10:47:11.860Z,100595.25
2023-03-22T10:49:43.872Z,100637.72
2023-03-22T10:52:28.884Z,100687.22
2023-03-22T10:55:01.246Z,100692.84
2023-03-22T10:57:29.817Z,100646.63
2023-03-22T10:59:56.943Z,100686.22
2023-03-22T11:02:34.669Z,100679.84
2023-03-22T11:05:05.922Z,100672.19
2023-03-22T11:07:39.767Z,100678.53
2023-03-22T11:10:09.404Z,100681.44
2023-03-22T11:13:10.996Z,100671.88
2023-03-22T11:15:49.660Z,100618.97
2023-03-22T11:18:18.136Z,100673.25
2023-03-22T11:21:00.719Z,100599.81
2023-03-22T11:23:28.686Z,100576.56
2023-03-22T11:25:59.350Z,100653.72
2023-03-22T11:28:36.342Z,100641.84
2023-03-22T11:31:02.970Z,100656.88
2023-03-22T11:33:29.987Z,100652.28
2023-03-22T11:36:01.477Z,100648.50
2023-03-22T11:38:37.376Z,100660.31
2023-03-22T11:41:28.190Z,100662.75
2023-03-22T11:44:05.641Z,100675.81
2023-03-22T11:46:34.144Z,100611.78
2023-03-22T11:49:08.211Z,100596.06
2023-03-22T11:51:39.400Z,100637.13
2023-03-22T11:54:16.884Z,100654.94
2023-03-22T11:56:47.189Z,100633.72
2023-03-22T11:59:15.875Z,100642.09
2023-03-22T12:01:51.823Z,100653.22
2023-03-22T12:04:24.844Z,100522.69
2023-03-22T12:07:00.058Z,100635.25
2023-03-22T12:09:50.492Z,100639.03
2023-03-22T12:12:24.671Z,100481.13
2023-03-22T12:15:17.919Z,100660.41
2023-03-22T12:17:47.573Z,100653.56
2023-03-22T12:20:30.472Z,100607.03
2023-03-22T12:23:03.023Z,100591.44
2023-03-22T12:25:34.803Z,100590.25
2023-03-22T12:28:07.758Z,100649.13
2023-03-22T12:30:51.706Z,100565.25
2023-03-22T12:33:27.802Z,100646.03
2023-03-22T12:36:02.007Z,100656.13
2023-03-22T12:38:40.778Z,100655.13
2023-03-22T12:41:11.583Z,100649.28
2023-03-22T12:43:44.291Z,100648.59
2023-03-22T12:46:25.984Z,100648.25
2023-03-22T12:48:56.433Z,100638.50
2023-03-22T12:51:23.318Z,100649.63
2023-03-22T12:53:56.882Z,100640.72
2023-03-22T12:56:53.964Z,100649.09
2023-03-22T12:59:24.543Z,100595.69
2023-03-22T13:02:14.128Z,100652.00
2023-03-22T13:04:49.593Z,100641.78
2023-03-22T13:07:16.865Z,100629.59
2023-03-22T13:09:47.583Z,100631.50
2023-03-22T13:12:17.134Z,100645.19
2023-03-22T13:14:58.106Z,100636.13
2023-03-22T13:17:25.176Z,100646.19
2023-03-22T13:19:55.857Z,100589.72
2023-03-22T13:22:46.092Z,100637.13
2023-03-22T13:25:35.925Z,100635.41
2023-03-22T13:28:28.407Z,100648.09
2023-03-22T13:30:57.739Z,100645.34
2023-03-22T13:33:30.914Z,100583.06
2023-03-22T13:35:59.373Z,100628.03
2023-03-22T13:38:29.385Z,100650.16
2023-03-22T13:41:14.480Z,100647.75
2023-03-22T13:43:44.470Z,100641.56
2023-03-22T13:46:22.267Z,100616.75
2023-03-22T13:48:49.841Z,100654.56
2023-03-22T13:51:26.416Z,100650.16
2023-03-22T13:53:55.928Z,100638.50
2023-03-22T13:56:56.630Z,100642.78
2023-03-22T13:59:23.135Z,100645.84
2023-03-22T14:02:08.797Z,100642.09
2023-03-22T14:04:53.281Z,100636.97
2023-03-22T14:07:29.060Z,100630.28
2023-03-22T14:10:06.848Z,100568.31
2023-03-22T14:12:36.652Z,100629.94
2023-03-22T14:15:06.981Z,100565.25
2023-03-22T14:17:33.563Z,100622.06
2023-03-22T14:20:02.193Z,100606.50
